LEJR/XRY METAR and TAF weather

Enter ICAO airport designator
Station Type Date Time Source
LEJR METAR 2024/05/28 23:30 UTC NOAA

LEJR 282330Z AUTO 35004KT CAVOK 18/16 Q1017


Station Type Date Time Source
LEJR Decoded METAR 2024/05/28 23:30 UTC NOAA

Jerez De La Fronteraaeropuerto, Spain (LEJR) 36-45N 006-04W 28M
May 28, 2024 - 07:30 PM EDT / 2024.05.28 2330 UTC
Wind: from the N (350 degrees) at 5 MPH (4 KT):0
Visibility: greater than 7 mile(s):0
Temperature: 64 F (18 C)
Dew Point: 60 F (16 C)
Relative Humidity: 88%
Pressure (altimeter): 30.03 in. Hg (1017 hPa)
ob: LEJR 282330Z AUTO 35004KT CAVOK 18/16 Q1017
cycle: 23

Station Type Date Time Source
LEJR TAF 2024/05/28 21:30 UTC NOAA